DEP weather

Daporijo Airport
Daporijo, Arunachal Pradesh, India

Public forecast

Using degrees Celsius for public forecast. Weather courtesy of forecast.io.

METAR (pilot weather report)

Report is more than 6 hours old.

Closest report is Dibrugarh Airport, 51.8 nm (96.0 km) SE. Retrieved 2018/09/23 12:00 UTC (8 hours ago):

VEMN 231200Z 00000KT 4000 HZ SCT020 FEW025CB BKN100 28/26 Q1009 NOSIG

TAF (pilot weather forecast)

Forecast is more than 12 hours old.

Closest forecast is Jorhat Airport, 75.3 nm (139.5 km) S. Retrieved 2009/10/07 21:00 UTC (9 years ago):

TAF VEJT 072100Z 0800/0809 VRB02KT 2000 RA/HZ SCT015 SCT020 BKN100 BECMG 0804/0806 5000 HZ TEMPO 0800/0809 1500 TSRA SCT010 FEW025CB OVC090